Time;durP1;ratioP1;P1;durP2;ratioP2;P2;SDS_P1;SDS_P2;PMS_P1;PMS_P2;Temp;Humidity;BMP_temperature;BMP_pressure;BME280_temperature;BME280_humidity;BME280_pressure;Samples;Min_cycle;Max_cycle;Signal;HPM_P1;HPM_P2
2023/04/15 00:02:30;;;;;;;;;8.60;8.60;;;;;;;;5248265;28;8771;-67
2023/04/15 00:05:00;;;;;;;;;16.50;16.00;;;;;;;;5247891;28;8795;-68
2023/04/15 00:07:32;;;;;;;;;18.60;18.60;;;;;;;;5229173;28;10039;-67
2023/04/15 00:10:04;;;;;;;;;33.20;32.00;;;;;;;;5227045;28;8789;-68
2023/04/15 00:12:35;;;;;;;;;28.80;28.00;;;;;;;;5248148;28;9466;-68
2023/04/15 00:15:07;;;;;;;;;37.60;32.20;;;;;;;;5246530;28;8815;-68
2023/04/15 00:17:39;;;;;;;;;37.60;33.40;;;;;;;;5247275;28;8771;-68
2023/04/15 00:20:10;;;;;;;;;34.00;31.20;;;;;;;;5247994;28;8787;-68
2023/04/15 00:22:41;;;;;;;;;37.40;32.80;;;;;;;;5247933;28;8779;-67
2023/04/15 00:25:12;;;;;;;;;24.40;21.40;;;;;;;;5241844;28;8808;-68
2023/04/15 00:27:43;;;;;;;;;22.50;21.75;;;;;;;;5225900;28;8770;-68
2023/04/15 00:30:14;;;;;;;;;22.50;22.50;;;;;;;;5234329;28;10657;-68
2023/04/15 00:32:47;;;;;;;;;31.20;29.00;;;;;;;;5246033;28;8817;-68
2023/04/15 00:35:18;;;;;;;;;38.60;35.60;;;;;;;;5213407;28;8843;-68
2023/04/15 00:37:50;;;;;;;;;43.50;40.25;;;;;;;;5247516;28;8783;-68
2023/04/15 00:40:23;;;;;;;;;28.80;26.60;;;;;;;;5246129;28;8790;-68
2023/04/15 00:42:54;;;;;;;;;25.80;23.40;;;;;;;;5247386;28;8779;-68
2023/04/15 00:45:45;;;;;;;;;39.60;30.60;;;;;;;;5232095;28;8790;-68
2023/04/15 00:48:17;;;;;;;;;18.40;15.00;;;;;;;;5225438;28;8797;-68
2023/04/15 00:50:48;;;;;;;;;34.80;30.00;;;;;;;;5226377;28;8810;-68
2023/04/15 00:53:19;;;;;;;;;52.40;45.80;;;;;;;;5231588;28;8863;-68
2023/04/15 00:56:09;;;;;;;;;49.60;40.20;;;;;;;;5247187;28;8941;-69
2023/04/15 00:58:40;;;;;;;;;75.00;49.00;;;;;;;;5235528;28;8778;-68
2023/04/15 01:01:11;;;;;;;;;39.80;34.00;;;;;;;;5225003;28;9317;-68
2023/04/15 01:03:42;;;;;;;;;62.60;52.60;;;;;;;;5226744;28;8789;-68
2023/04/15 01:06:13;;;;;;;;;71.60;45.40;;;;;;;;5225193;28;8921;-68
2023/04/15 01:08:44;;;;;;;;;48.00;36.50;;;;;;;;5225276;28;8916;-68
2023/04/15 01:11:16;;;;;;;;;53.00;42.40;;;;;;;;5224930;28;10298;-68
2023/04/15 01:13:47;;;;;;;;;75.80;54.00;;;;;;;;5239315;28;8795;-68
2023/04/15 01:16:19;;;;;;;;;45.40;36.20;;;;;;;;5246212;28;9518;-69
2023/04/15 01:18:51;;;;;;;;;65.00;48.40;;;;;;;;5246596;28;8787;-68
2023/04/15 01:21:23;;;;;;;;;43.20;36.80;;;;;;;;5209320;28;8825;-69
2023/04/15 01:23:55;;;;;;;;;55.80;46.80;;;;;;;;5224772;28;8949;-68
2023/04/15 01:26:27;;;;;;;;;42.00;32.60;;;;;;;;5207925;28;8793;-68
2023/04/15 01:28:58;;;;;;;;;50.00;39.40;;;;;;;;5208532;28;8979;-68
2023/04/15 01:31:29;;;;;;;;;47.40;40.80;;;;;;;;5224842;28;8785;-69
2023/04/15 01:34:01;;;;;;;;;50.40;41.60;;;;;;;;5209649;28;8818;-69
2023/04/15 01:37:09;;;;;;;;;43.00;32.20;;;;;;;;5246569;28;8870;-68
2023/04/15 01:39:41;;;;;;;;;49.20;43.80;;;;;;;;5245292;28;8815;-69
2023/04/15 01:42:12;;;;;;;;;37.25;32.25;;;;;;;;5245748;28;8880;-68
2023/04/15 01:44:45;;;;;;;;;42.00;33.00;;;;;;;;5245212;28;8830;-68
2023/04/15 01:47:17;;;;;;;;;26.60;20.20;;;;;;;;5246248;28;8803;-68
2023/04/15 01:49:49;;;;;;;;;24.60;23.20;;;;;;;;5243675;28;8800;-69
2023/04/15 01:52:23;;;;;;;;;29.20;24.60;;;;;;;;5245800;28;9526;-69
2023/04/15 01:54:55;;;;;;;;;19.00;16.00;;;;;;;;5246258;28;8847;-68
2023/04/15 01:57:27;;;;;;;;;30.80;21.20;;;;;;;;5223960;28;8802;-68
2023/04/15 01:59:59;;;;;;;;;1.00;0.00;;;;;;;;5224431;28;8770;-68
2023/04/15 02:02:32;;;;;;;;;20.40;18.20;;;;;;;;5225488;28;8932;-68
2023/04/15 02:05:04;;;;;;;;;23.00;20.80;;;;;;;;5224342;28;8809;-68
2023/04/15 02:07:55;;;;;;;;;28.20;24.00;;;;;;;;5225705;28;9500;-68
2023/04/15 02:10:27;;;;;;;;;26.60;24.80;;;;;;;;5228998;28;8838;-68
2023/04/15 02:12:59;;;;;;;;;10.80;8.80;;;;;;;;5245340;28;8813;-68
2023/04/15 02:15:33;;;;;;;;;23.80;21.00;;;;;;;;5244963;28;8827;-68
2023/04/15 02:18:06;;;;;;;;;27.40;25.60;;;;;;;;5245028;28;8795;-67
2023/04/15 02:20:38;;;;;;;;;8.40;7.40;;;;;;;;5249202;28;8799;-67
2023/04/15 02:23:10;;;;;;;;;11.20;8.20;;;;;;;;5249494;28;8799;-67
2023/04/15 02:25:42;;;;;;;;;19.40;18.20;;;;;;;;5239605;28;8927;-68
2023/04/15 02:28:14;;;;;;;;;18.80;18.80;;;;;;;;5225885;28;8790;-69
2023/04/15 02:31:05;;;;;;;;;21.20;13.80;;;;;;;;5250558;28;8937;-69
2023/04/15 02:33:37;;;;;;;;;22.60;18.40;;;;;;;;5250493;28;9517;-69
2023/04/15 02:36:11;;;;;;;;;15.40;14.20;;;;;;;;5236798;28;8972;-67
2023/04/15 02:38:43;;;;;;;;;16.00;16.00;;;;;;;;5247743;28;8787;-68
2023/04/15 02:41:16;;;;;;;;;13.80;13.80;;;;;;;;5249999;28;8775;-68
2023/04/15 02:43:50;;;;;;;;;14.60;9.80;;;;;;;;5232108;28;8799;-68
2023/04/15 02:46:22;;;;;;;;;11.60;11.60;;;;;;;;5231700;28;9534;-68
2023/04/15 02:48:55;;;;;;;;;6.60;6.60;;;;;;;;5248145;28;9554;-68
2023/04/15 02:51:30;;;;;;;;;22.80;22.80;;;;;;;;5248239;28;9538;-68
2023/04/15 02:54:02;;;;;;;;;16.60;16.60;;;;;;;;5247368;28;8868;-69
2023/04/15 02:56:34;;;;;;;;;14.20;14.20;;;;;;;;5248078;28;8819;-68
2023/04/15 02:59:06;;;;;;;;;17.60;17.60;;;;;;;;5249188;28;8801;-68
2023/04/15 03:01:38;;;;;;;;;7.20;7.20;;;;;;;;5248985;28;8817;-69
2023/04/15 03:04:10;;;;;;;;;9.00;7.40;;;;;;;;5235826;28;8796;-68
2023/04/15 03:06:43;;;;;;;;;39.20;37.00;;;;;;;;5227171;28;8797;-68
2023/04/15 03:09:15;;;;;;;;;22.00;22.00;;;;;;;;5228722;28;9525;-68
2023/04/15 03:11:49;;;;;;;;;28.80;28.00;;;;;;;;5227311;28;8774;-68
2023/04/15 03:14:21;;;;;;;;;21.20;20.60;;;;;;;;5227191;28;8782;-68
2023/04/15 03:17:12;;;;;;;;;20.00;20.00;;;;;;;;5228672;28;8903;-68
2023/04/15 03:19:44;;;;;;;;;45.40;42.40;;;;;;;;5227010;28;9523;-68
2023/04/15 03:22:35;;;;;;;;;45.60;44.20;;;;;;;;5227123;28;9492;-68
2023/04/15 03:25:08;;;;;;;;;20.80;20.80;;;;;;;;5243459;28;8799;-68
2023/04/15 03:27:42;;;;;;;;;34.40;31.80;;;;;;;;5247638;28;9482;-68
2023/04/15 03:30:14;;;;;;;;;20.80;20.60;;;;;;;;5234362;28;8794;-69
2023/04/15 03:32:46;;;;;;;;;36.00;33.00;;;;;;;;5240832;28;9592;-68
2023/04/15 03:35:18;;;;;;;;;19.00;19.00;;;;;;;;5232733;28;8795;-68
2023/04/15 03:37:51;;;;;;;;;25.80;25.80;;;;;;;;5241756;28;8820;-68
2023/04/15 03:40:42;;;;;;;;;18.20;16.80;;;;;;;;5239827;28;8805;-68
2023/04/15 03:43:14;;;;;;;;;5.20;5.20;;;;;;;;5248353;28;8793;-68
2023/04/15 03:45:46;;;;;;;;;5.00;5.00;;;;;;;;5246944;28;8913;-68
2023/04/15 03:48:18;;;;;;;;;4.00;4.00;;;;;;;;5246124;28;8805;-68
2023/04/15 03:50:50;;;;;;;;;4.60;4.60;;;;;;;;5229790;28;8840;-67
2023/04/15 03:53:23;;;;;;;;;7.00;7.00;;;;;;;;5227556;28;8806;-68
2023/04/15 03:55:55;;;;;;;;;15.40;15.40;;;;;;;;5227297;28;8856;-67
2023/04/15 03:58:46;;;;;;;;;7.00;7.00;;;;;;;;5227272;28;8837;-67
2023/04/15 04:01:18;;;;;;;;;10.40;8.80;;;;;;;;5227177;28;8805;-68
2023/04/15 04:04:09;;;;;;;;;5.80;5.80;;;;;;;;5227073;28;8777;-68
2023/04/15 04:06:41;;;;;;;;;2.00;2.00;;;;;;;;5227361;28;8813;-68
2023/04/15 04:09:13;;;;;;;;;9.60;9.60;;;;;;;;5230264;28;8809;-68
2023/04/15 04:12:04;;;;;;;;;13.00;13.00;;;;;;;;5244059;28;8811;-68
2023/04/15 04:14:55;;;;;;;;;11.40;11.40;;;;;;;;5229606;28;9553;-69
2023/04/15 04:17:27;;;;;;;;;10.20;10.20;;;;;;;;5227883;28;8801;-68
2023/04/15 04:19:59;;;;;;;;;7.20;5.00;;;;;;;;5238933;28;8807;-68
2023/04/15 04:22:35;;;;;;;;;11.00;11.00;;;;;;;;5247632;28;8801;-69
2023/04/15 04:25:09;;;;;;;;;5.00;5.00;;;;;;;;5241888;28;9542;-69
2023/04/15 04:27:41;;;;;;;;;2.00;2.00;;;;;;;;5242585;28;8798;-68
2023/04/15 04:30:13;;;;;;;;;20.40;20.20;;;;;;;;5228040;28;8807;-69
2023/04/15 04:32:45;;;;;;;;;8.00;8.00;;;;;;;;5239886;28;8803;-66
2023/04/15 04:35:17;;;;;;;;;19.40;13.40;;;;;;;;5232729;28;8815;-67
2023/04/15 04:37:49;;;;;;;;;8.00;8.00;;;;;;;;5240021;28;8817;-69
2023/04/15 04:40:21;;;;;;;;;6.20;6.20;;;;;;;;5232768;28;8852;-67
2023/04/15 04:42:53;;;;;;;;;4.20;4.20;;;;;;;;5231566;28;8825;-66
2023/04/15 04:45:26;;;;;;;;;7.20;7.00;;;;;;;;5223982;28;8793;-67
2023/04/15 04:47:58;;;;;;;;;18.80;14.80;;;;;;;;5223267;28;8794;-67
2023/04/15 04:50:30;;;;;;;;;16.00;12.40;;;;;;;;5224565;28;8808;-71
2023/04/15 04:53:03;;;;;;;;;2.00;2.00;;;;;;;;5223404;28;8844;-71
2023/04/15 04:55:38;;;;;;;;;4.40;4.00;;;;;;;;5223387;28;8802;-73
2023/04/15 04:58:10;;;;;;;;;9.00;9.00;;;;;;;;5241760;28;9537;-71
2023/04/15 05:00:42;;;;;;;;;4.60;4.60;;;;;;;;5227161;28;8811;-71
2023/04/15 05:03:15;;;;;;;;;8.80;5.60;;;;;;;;5233612;28;8799;-79
2023/04/15 05:05:49;;;;;;;;;3.60;2.00;;;;;;;;5218105;28;8817;-78
2023/04/15 05:08:23;;;;;;;;;0.60;0.60;;;;;;;;5222193;28;8825;-79
2023/04/15 05:10:56;;;;;;;;;2.00;2.00;;;;;;;;5224261;28;8813;-80
2023/04/15 05:13:30;;;;;;;;;0.40;0.40;;;;;;;;5238592;28;8813;-79
2023/04/15 05:16:24;;;;;;;;;1.20;1.20;;;;;;;;5236671;28;8856;-80
2023/04/15 05:18:58;;;;;;;;;0.80;0.80;;;;;;;;5239974;28;8793;-80
2023/04/15 05:21:31;;;;;;;;;4.20;2.80;;;;;;;;5239632;28;9679;-80
2023/04/15 05:24:05;;;;;;;;;2.00;2.00;;;;;;;;5206749;28;8822;-80
2023/04/15 05:26:38;;;;;;;;;0.20;0.20;;;;;;;;5223241;28;8838;-79
2023/04/15 05:29:12;;;;;;;;;1.00;1.00;;;;;;;;5223160;28;8820;-79
2023/04/15 05:31:45;;;;;;;;;6.80;6.80;;;;;;;;5206601;28;8812;-82
2023/04/15 05:34:19;;;;;;;;;8.00;8.00;;;;;;;;5218442;28;8851;-79
2023/04/15 05:36:53;;;;;;;;;3.80;3.80;;;;;;;;5212157;28;8829;-79
2023/04/15 05:39:26;;;;;;;;;0.00;0.00;;;;;;;;5241012;28;8811;-80
2023/04/15 05:42:00;;;;;;;;;5.20;5.20;;;;;;;;5227040;28;8810;-83
2023/04/15 05:44:34;;;;;;;;;2.00;2.00;;;;;;;;5227101;28;8876;-78
2023/04/15 05:47:09;;;;;;;;;1.60;1.60;;;;;;;;5215719;28;8805;-78
2023/04/15 05:49:42;;;;;;;;;3.20;2.80;;;;;;;;5213160;28;8840;-79
2023/04/15 05:52:16;;;;;;;;;1.00;1.00;;;;;;;;5228608;28;9494;-80
2023/04/15 05:54:50;;;;;;;;;0.40;0.40;;;;;;;;5227991;28;8800;-79
2023/04/15 05:57:23;;;;;;;;;2.80;2.80;;;;;;;;5228801;28;8819;-79
2023/04/15 05:59:57;;;;;;;;;1.40;1.40;;;;;;;;5222694;28;8973;-81
2023/04/15 06:02:30;;;;;;;;;1.00;1.00;;;;;;;;5225240;28;8821;-80
2023/04/15 06:05:23;;;;;;;;;7.60;7.60;;;;;;;;5229226;28;8947;-81
2023/04/15 06:07:56;;;;;;;;;1.80;1.80;;;;;;;;5243065;28;8825;-80
2023/04/15 06:10:35;;;;;;;;;6.80;6.80;;;;;;;;5245155;28;9644;-79
2023/04/15 06:13:08;;;;;;;;;0.40;0.40;;;;;;;;5226644;28;8808;-79
2023/04/15 06:15:42;;;;;;;;;23.00;22.60;;;;;;;;5208099;28;8805;-80
2023/04/15 06:18:16;;;;;;;;;1.80;1.80;;;;;;;;5207652;28;8794;-79
2023/04/15 06:20:49;;;;;;;;;0.80;0.80;;;;;;;;5207877;28;8774;-79
2023/04/15 06:23:42;;;;;;;;;19.00;19.00;;;;;;;;5224072;28;8932;-80
2023/04/15 06:26:16;;;;;;;;;1.80;1.80;;;;;;;;5216042;28;9493;-80
2023/04/15 06:28:49;;;;;;;;;16.20;16.20;;;;;;;;5210371;28;8763;-70
2023/04/15 06:31:21;;;;;;;;;67.40;57.20;;;;;;;;5243479;28;8889;-71
2023/04/15 06:33:54;;;;;;;;;3.40;3.40;;;;;;;;5244270;28;9534;-71
2023/04/15 06:36:26;;;;;;;;;4.20;4.20;;;;;;;;5245070;28;8807;-73
2023/04/15 06:38:59;;;;;;;;;1.40;1.40;;;;;;;;5227959;28;8790;-73
2023/04/15 06:41:31;;;;;;;;;3.20;3.20;;;;;;;;5227982;28;8875;-73
2023/04/15 06:44:04;;;;;;;;;6.80;6.80;;;;;;;;5227039;28;9574;-73
2023/04/15 06:46:36;;;;;;;;;5.00;5.00;;;;;;;;5228920;28;8804;-73
2023/04/15 06:49:08;;;;;;;;;3.00;3.00;;;;;;;;5224058;28;8793;-73
2023/04/15 06:51:41;;;;;;;;;0.60;0.60;;;;;;;;5223613;28;8807;-72
2023/04/15 06:54:13;;;;;;;;;1.00;1.00;;;;;;;;5223758;28;9571;-73
2023/04/15 06:56:46;;;;;;;;;1.80;1.80;;;;;;;;5224863;28;8790;-74
2023/04/15 06:59:18;;;;;;;;;2.20;2.20;;;;;;;;5227851;28;8805;-73
2023/04/15 07:01:51;;;;;;;;;1.00;1.00;;;;;;;;5223568;28;8802;-73
2023/04/15 07:04:23;;;;;;;;;7.20;7.20;;;;;;;;5207600;28;8792;-73
2023/04/15 07:06:55;;;;;;;;;3.00;3.00;;;;;;;;5237140;28;9498;-75
2023/04/15 07:09:28;;;;;;;;;2.00;2.00;;;;;;;;5229631;28;8932;-72
2023/04/15 07:12:00;;;;;;;;;13.40;13.40;;;;;;;;5247560;28;8871;-73
2023/04/15 07:14:32;;;;;;;;;1.00;1.00;;;;;;;;5246400;28;8783;-75
2023/04/15 07:17:05;;;;;;;;;1.60;1.60;;;;;;;;5230013;28;8838;-74
2023/04/15 07:19:37;;;;;;;;;3.00;3.00;;;;;;;;5228653;28;8831;-74
2023/04/15 07:22:09;;;;;;;;;3.00;3.00;;;;;;;;5242662;28;8825;-68
2023/04/15 07:24:42;;;;;;;;;1.20;1.20;;;;;;;;5240021;28;8832;-70
2023/04/15 07:27:14;;;;;;;;;5.80;5.00;;;;;;;;5234171;28;9536;-70
2023/04/15 07:29:47;;;;;;;;;0.20;0.20;;;;;;;;5225768;28;8773;-71
2023/04/15 07:32:19;;;;;;;;;2.00;2.00;;;;;;;;5224732;28;8887;-71
2023/04/15 07:34:52;;;;;;;;;0.80;0.80;;;;;;;;5225084;28;8827;-71
2023/04/15 07:37:24;;;;;;;;;2.40;2.20;;;;;;;;5225301;28;8829;-69
2023/04/15 07:39:56;;;;;;;;;0.00;0.00;;;;;;;;5225519;28;8815;-69
2023/04/15 07:46:00;;;;;;;;;0.80;0.80;;;;;;;;5226865;28;8931;-69
2023/04/15 07:48:32;;;;;;;;;10.20;8.00;;;;;;;;5229963;28;8806;-68
2023/04/15 07:51:04;;;;;;;;;2.00;2.00;;;;;;;;5226150;28;8819;-68
2023/04/15 07:53:37;;;;;;;;;2.00;1.60;;;;;;;;5229052;28;8837;-69
2023/04/15 07:56:09;;;;;;;;;1.20;1.20;;;;;;;;5229426;28;9642;-68
2023/04/15 07:58:42;;;;;;;;;0.20;0.20;;;;;;;;5228125;28;8803;-68
2023/04/15 08:01:14;;;;;;;;;10.40;10.40;;;;;;;;5234358;28;8824;-70
2023/04/15 08:03:47;;;;;;;;;1.00;1.00;;;;;;;;5225367;28;8824;-69
2023/04/15 08:06:19;;;;;;;;;1.00;1.00;;;;;;;;5225225;28;8785;-71
2023/04/15 08:08:51;;;;;;;;;0.00;0.00;;;;;;;;5226319;28;8789;-69
2023/04/15 08:11:23;;;;;;;;;2.00;2.00;;;;;;;;5225304;28;8781;-68
2023/04/15 08:13:55;;;;;;;;;16.00;16.00;;;;;;;;5209058;28;8816;-68
2023/04/15 08:16:28;;;;;;;;;2.00;2.00;;;;;;;;5226560;28;9628;-69
2023/04/15 08:19:00;;;;;;;;;1.00;1.00;;;;;;;;5226912;28;8932;-68
2023/04/15 08:21:32;;;;;;;;;0.00;0.00;;;;;;;;5227338;28;8831;-68
2023/04/15 08:24:05;;;;;;;;;1.40;1.40;;;;;;;;5227222;28;8766;-68
2023/04/15 08:26:37;;;;;;;;;1.40;1.40;;;;;;;;5227157;28;8797;-69
2023/04/15 08:29:10;;;;;;;;;3.00;3.00;;;;;;;;5226246;28;9575;-69
2023/04/15 08:32:01;;;;;;;;;9.40;9.40;;;;;;;;5228266;28;8786;-68
2023/04/15 08:34:33;;;;;;;;;1.00;1.00;;;;;;;;5226652;28;8798;-68
2023/04/15 08:37:05;;;;;;;;;2.40;2.40;;;;;;;;5226940;28;8809;-70
2023/04/15 08:39:37;;;;;;;;;0.00;0.00;;;;;;;;5227234;28;9798;-69
2023/04/15 08:42:11;;;;;;;;;1.40;1.40;;;;;;;;5225586;28;8805;-68
2023/04/15 08:44:45;;;;;;;;;2.00;2.00;;;;;;;;5225728;28;8793;-68
2023/04/15 08:47:19;;;;;;;;;0.00;0.00;;;;;;;;5226979;28;8794;-68
2023/04/15 08:49:53;;;;;;;;;1.00;1.00;;;;;;;;5226601;28;8778;-68
2023/04/15 08:52:26;;;;;;;;;0.00;0.00;;;;;;;;5225567;28;8793;-69
2023/04/15 08:54:59;;;;;;;;;1.00;1.00;;;;;;;;5229048;28;8842;-68
2023/04/15 08:57:32;;;;;;;;;0.60;0.60;;;;;;;;5245905;28;8759;-73
2023/04/15 09:00:04;;;;;;;;;0.00;0.00;;;;;;;;5244260;28;8787;-70
2023/04/15 09:02:37;;;;;;;;;2.00;2.00;;;;;;;;5237612;28;8825;-72
2023/04/15 09:05:09;;;;;;;;;2.20;2.20;;;;;;;;5227166;28;8822;-72
2023/04/15 09:07:41;;;;;;;;;0.80;0.80;;;;;;;;5231618;28;8795;-72
2023/04/15 09:10:32;;;;;;;;;0.00;0.00;;;;;;;;5243563;28;8791;-73
2023/04/15 09:13:04;;;;;;;;;2.20;2.20;;;;;;;;5246390;28;8774;-73
2023/04/15 09:15:39;;;;;;;;;1.20;1.20;;;;;;;;5244524;28;8766;-73
2023/04/15 09:18:12;;;;;;;;;1.60;1.60;;;;;;;;5244349;28;8818;-73
2023/04/15 09:20:44;;;;;;;;;11.00;7.00;;;;;;;;5245380;28;8791;-73
2023/04/15 09:23:16;;;;;;;;;6.20;5.60;;;;;;;;5246966;28;8893;-73
2023/04/15 09:25:49;;;;;;;;;17.20;16.00;;;;;;;;5245333;28;8795;-73
2023/04/15 09:28:27;;;;;;;;;13.00;12.60;;;;;;;;5245708;28;8786;-73
2023/04/15 09:31:00;;;;;;;;;2.80;2.80;;;;;;;;5246833;28;8815;-73
2023/04/15 09:33:33;;;;;;;;;0.00;0.00;;;;;;;;5245920;28;8799;-72
2023/04/15 09:36:05;;;;;;;;;4.00;4.00;;;;;;;;5245269;28;8787;-73
2023/04/15 09:38:53;;;;;;;;;1.00;0.60;;;;;;;;5245278;28;8814;-73
2023/04/15 09:41:26;;;;;;;;;2.60;2.60;;;;;;;;5246578;28;8809;-72
2023/04/15 09:43:58;;;;;;;;;1.80;1.80;;;;;;;;5228415;28;8802;-73
2023/04/15 09:46:44;;;;;;;;;1.80;1.60;;;;;;;;5244963;28;8814;-72
2023/04/15 09:49:16;;;;;;;;;3.40;3.40;;;;;;;;5228513;28;8787;-72
2023/04/15 09:51:49;;;;;;;;;1.00;1.00;;;;;;;;5244933;28;8818;-72
2023/04/15 09:54:21;;;;;;;;;1.20;1.20;;;;;;;;5244756;28;8878;-72
2023/04/15 09:57:12;;;;;;;;;9.20;9.00;;;;;;;;5246389;28;8795;-72
2023/04/15 09:59:44;;;;;;;;;10.00;9.60;;;;;;;;5244823;28;8833;-72
2023/04/15 10:02:17;;;;;;;;;14.80;14.60;;;;;;;;5245006;28;8775;-73
2023/04/15 10:04:50;;;;;;;;;6.80;6.80;;;;;;;;5244854;28;8767;-72
2023/04/15 10:07:24;;;;;;;;;4.20;4.00;;;;;;;;5246009;28;8767;-73
2023/04/15 10:09:58;;;;;;;;;4.00;4.00;;;;;;;;5246450;28;8808;-72
2023/04/15 10:12:32;;;;;;;;;1.00;1.00;;;;;;;;5246436;28;8767;-73
2023/04/15 10:15:04;;;;;;;;;4.40;3.80;;;;;;;;5246036;28;8767;-73
2023/04/15 10:17:37;;;;;;;;;2.40;2.40;;;;;;;;5246080;28;8814;-72
2023/04/15 10:20:28;;;;;;;;;0.00;0.00;;;;;;;;5245473;28;8818;-72
2023/04/15 10:23:01;;;;;;;;;1.80;1.80;;;;;;;;5244666;28;8807;-73
2023/04/15 10:25:53;;;;;;;;;1.00;1.00;;;;;;;;5245967;28;8799;-73
2023/04/15 10:28:26;;;;;;;;;1.60;1.60;;;;;;;;5244479;28;8821;-72
2023/04/15 10:30:58;;;;;;;;;0.60;0.60;;;;;;;;5245847;28;8771;-72
2023/04/15 10:33:30;;;;;;;;;1.00;1.00;;;;;;;;5244047;28;8827;-73
2023/04/15 10:36:03;;;;;;;;;8.40;8.40;;;;;;;;5245923;28;8834;-73
2023/04/15 10:38:36;;;;;;;;;2.00;2.00;;;;;;;;5245823;28;8795;-72
2023/04/15 10:41:33;;;;;;;;;1.00;1.00;;;;;;;;5249748;28;8775;-72
2023/04/15 10:44:05;;;;;;;;;1.00;1.00;;;;;;;;5249841;28;8787;-72
2023/04/15 10:46:44;;;;;;;;;10.00;8.60;;;;;;;;5250069;28;8790;-72
2023/04/15 10:49:23;;;;;;;;;4.00;4.00;;;;;;;;5248955;28;8779;-72
2023/04/15 10:51:58;;;;;;;;;8.00;8.00;;;;;;;;5249784;28;8914;-72
2023/04/15 10:54:31;;;;;;;;;13.60;13.60;;;;;;;;5249753;28;8807;-72
2023/04/15 10:57:04;;;;;;;;;8.40;8.40;;;;;;;;5248143;28;9715;-72
2023/04/15 10:59:38;;;;;;;;;0.60;0.40;;;;;;;;5248202;28;8813;-73
2023/04/15 11:02:12;;;;;;;;;1.00;1.00;;;;;;;;5248428;28;8772;-73
2023/04/15 11:04:51;;;;;;;;;2.00;2.00;;;;;;;;5248195;28;8814;-72
2023/04/15 11:07:47;;;;;;;;;1.40;1.40;;;;;;;;5249302;28;8775;-72
2023/04/15 11:10:38;;;;;;;;;0.00;0.00;;;;;;;;5248295;28;8779;-72
2023/04/15 11:13:10;;;;;;;;;0.00;0.00;;;;;;;;5247944;28;8775;-72
2023/04/15 11:15:46;;;;;;;;;0.00;0.00;;;;;;;;5249251;28;8771;-73
2023/04/15 11:18:21;;;;;;;;;4.60;4.60;;;;;;;;5249612;28;9514;-73
2023/04/15 11:20:58;;;;;;;;;0.20;0.20;;;;;;;;5250131;28;8823;-71
2023/04/15 11:23:33;;;;;;;;;3.00;3.00;;;;;;;;5247999;28;8779;-71
2023/04/15 11:26:08;;;;;;;;;2.00;2.00;;;;;;;;5249754;28;8793;-72
2023/04/15 11:29:00;;;;;;;;;1.00;1.00;;;;;;;;5248280;28;8795;-72
2023/04/15 11:31:32;;;;;;;;;5.80;5.80;;;;;;;;5247883;28;8789;-72
2023/04/15 11:34:04;;;;;;;;;2.00;2.00;;;;;;;;5247308;28;8836;-72
2023/04/15 11:36:36;;;;;;;;;2.40;2.40;;;;;;;;5249262;28;9529;-72
2023/04/15 11:39:08;;;;;;;;;1.80;1.80;;;;;;;;5248883;28;8799;-72
2023/04/15 11:41:42;;;;;;;;;1.00;1.00;;;;;;;;5249115;28;8805;-72
2023/04/15 11:44:17;;;;;;;;;0.20;0.20;;;;;;;;5247615;28;8810;-72
2023/04/15 11:46:50;;;;;;;;;0.00;0.00;;;;;;;;5248548;28;8826;-72
2023/04/15 11:49:29;;;;;;;;;0.80;0.80;;;;;;;;5248413;28;8795;-72
2023/04/15 11:52:00;;;;;;;;;1.00;1.00;;;;;;;;5231223;28;8824;-72
2023/04/15 11:54:31;;;;;;;;;4.20;4.20;;;;;;;;5208580;28;8826;-72
2023/04/15 11:57:02;;;;;;;;;12.60;12.00;;;;;;;;5243226;28;8888;-73
2023/04/15 11:59:43;;;;;;;;;0.60;0.60;;;;;;;;5217991;28;8817;-74
2023/04/15 12:02:13;;;;;;;;;3.00;3.00;;;;;;;;5241714;28;9541;-71
2023/04/15 12:04:44;;;;;;;;;2.00;2.00;;;;;;;;5246911;28;8802;-72
2023/04/15 12:07:15;;;;;;;;;4.20;4.20;;;;;;;;5210198;28;11187;-74
2023/04/15 12:09:53;;;;;;;;;2.60;2.60;;;;;;;;5224851;28;8948;-75
2023/04/15 12:12:28;;;;;;;;;3.40;3.40;;;;;;;;5239042;28;9575;-72
2023/04/15 12:14:58;;;;;;;;;0.00;0.00;;;;;;;;5228521;28;8799;-71
2023/04/15 12:17:30;;;;;;;;;13.50;13.25;;;;;;;;5246428;28;8798;-71
2023/04/15 12:20:02;;;;;;;;;12.20;12.20;;;;;;;;5246076;28;11492;-71
2023/04/15 12:22:37;;;;;;;;;5.20;4.20;;;;;;;;5228509;28;8805;-71
2023/04/15 12:25:08;;;;;;;;;3.00;3.00;;;;;;;;5234993;28;8766;-71
2023/04/15 12:27:39;;;;;;;;;9.00;8.75;;;;;;;;5223963;28;8778;-70
2023/04/15 12:30:28;;;;;;;;;2.00;2.00;;;;;;;;5227003;28;11498;-72
2023/04/15 12:33:00;;;;;;;;;20.40;20.40;;;;;;;;5226787;28;9581;-72
2023/04/15 12:35:31;;;;;;;;;5.80;5.80;;;;;;;;5226040;28;8941;-70
2023/04/15 12:38:21;;;;;;;;;10.40;10.00;;;;;;;;5227182;28;8758;-70
2023/04/15 12:40:52;;;;;;;;;5.50;5.50;;;;;;;;5245344;28;9589;-70
2023/04/15 12:43:24;;;;;;;;;1.00;1.00;;;;;;;;5244781;28;10120;-70
2023/04/15 12:46:14;;;;;;;;;10.60;10.60;;;;;;;;5241095;28;8795;-71
2023/04/15 12:48:45;;;;;;;;;5.60;5.60;;;;;;;;5246385;28;8759;-71
2023/04/15 12:51:16;;;;;;;;;9.75;9.75;;;;;;;;5224708;28;9558;-72
2023/04/15 12:53:48;;;;;;;;;7.20;6.80;;;;;;;;5242214;28;12015;-71
2023/04/15 12:56:19;;;;;;;;;10.80;10.80;;;;;;;;5226198;28;8875;-72
2023/04/15 12:58:50;;;;;;;;;20.50;20.50;;;;;;;;5247054;28;8783;-71
2023/04/15 13:01:21;;;;;;;;;5.80;5.80;;;;;;;;5228906;28;8849;-71
2023/04/15 13:04:11;;;;;;;;;3.60;2.20;;;;;;;;5244984;28;8949;-71
2023/04/15 13:06:42;;;;;;;;;8.00;8.00;;;;;;;;5245893;28;9644;-71
2023/04/15 13:09:14;;;;;;;;;4.20;4.20;;;;;;;;5212594;28;8865;-70
2023/04/15 13:11:45;;;;;;;;;3.00;3.00;;;;;;;;5236990;28;8829;-71
2023/04/15 13:14:16;;;;;;;;;2.80;2.80;;;;;;;;5257476;28;9506;-71
2023/04/15 13:16:47;;;;;;;;;8.80;8.80;;;;;;;;5262905;28;9606;-71
2023/04/15 13:19:18;;;;;;;;;2.60;2.60;;;;;;;;5252112;28;8837;-71
2023/04/15 13:21:49;;;;;;;;;3.00;3.00;;;;;;;;5247938;28;8794;-72
2023/04/15 13:24:20;;;;;;;;;0.00;0.00;;;;;;;;5232991;28;8853;-72
2023/04/15 13:27:10;;;;;;;;;3.00;3.00;;;;;;;;5265894;28;8807;-77
2023/04/15 13:29:41;;;;;;;;;6.20;6.00;;;;;;;;5265483;28;8799;-70
2023/04/15 13:32:31;;;;;;;;;4.80;4.80;;;;;;;;5264400;28;8803;-72
2023/04/15 13:35:02;;;;;;;;;6.20;6.20;;;;;;;;5230108;28;8863;-71
2023/04/15 13:37:34;;;;;;;;;8.00;8.00;;;;;;;;5246658;28;8794;-71
2023/04/15 13:40:06;;;;;;;;;7.00;7.00;;;;;;;;5248833;28;8945;-71
2023/04/15 13:42:37;;;;;;;;;28.60;27.40;;;;;;;;5257580;28;8888;-71
2023/04/15 13:45:08;;;;;;;;;9.00;9.00;;;;;;;;5230347;28;9541;-70
2023/04/15 13:47:40;;;;;;;;;5.00;5.00;;;;;;;;5257666;28;8829;-70
2023/04/15 13:50:12;;;;;;;;;6.00;6.00;;;;;;;;5223914;28;9557;-71
2023/04/15 13:52:43;;;;;;;;;8.00;8.00;;;;;;;;5256017;28;8815;-71
2023/04/15 13:55:14;;;;;;;;;19.00;19.00;;;;;;;;5261830;28;8927;-74
2023/04/15 13:57:45;;;;;;;;;5.00;5.00;;;;;;;;5260992;28;8771;-72
2023/04/15 14:00:16;;;;;;;;;6.80;6.80;;;;;;;;5242316;28;8857;-73
2023/04/15 14:02:47;;;;;;;;;5.00;5.00;;;;;;;;5245975;28;8797;-73
2023/04/15 14:05:18;;;;;;;;;9.40;9.40;;;;;;;;5241799;28;8820;-72
2023/04/15 14:07:49;;;;;;;;;9.80;9.80;;;;;;;;5251339;28;8783;-72
2023/04/15 14:10:20;;;;;;;;;42.00;37.60;;;;;;;;5264276;28;8798;-72
2023/04/15 14:12:51;;;;;;;;;4.00;4.00;;;;;;;;5262840;28;8817;-71
2023/04/15 14:15:22;;;;;;;;;10.00;10.00;;;;;;;;5246997;28;10626;-71
2023/04/15 14:17:54;;;;;;;;;3.00;3.00;;;;;;;;5267755;28;8860;-71
2023/04/15 14:20:25;;;;;;;;;13.40;13.40;;;;;;;;5263790;28;8822;-72
2023/04/15 14:22:56;;;;;;;;;8.20;8.20;;;;;;;;5248910;28;8826;-71
2023/04/15 14:25:45;;;;;;;;;15.20;15.20;;;;;;;;5254358;28;8793;-72
2023/04/15 14:28:16;;;;;;;;;12.60;12.60;;;;;;;;5238914;28;8809;-71
2023/04/15 14:31:05;;;;;;;;;13.40;13.40;;;;;;;;5236223;28;8801;-71
2023/04/15 14:33:37;;;;;;;;;17.50;17.50;;;;;;;;5247853;28;8837;-70
2023/04/15 14:36:08;;;;;;;;;11.50;11.00;;;;;;;;5232215;28;8805;-72
2023/04/15 14:38:39;;;;;;;;;7.75;7.75;;;;;;;;5253215;28;8832;-70
2023/04/15 14:41:11;;;;;;;;;6.00;6.00;;;;;;;;5266780;28;8876;-73
2023/04/15 14:43:42;;;;;;;;;16.40;15.80;;;;;;;;5268931;28;8771;-73
2023/04/15 14:46:13;;;;;;;;;18.00;18.00;;;;;;;;5251370;28;8804;-72
2023/04/15 14:48:44;;;;;;;;;15.00;15.00;;;;;;;;5246838;28;8773;-72
2023/04/15 14:51:16;;;;;;;;;16.67;16.67;;;;;;;;5247502;28;8843;-71
2023/04/15 14:53:47;;;;;;;;;20.40;20.20;;;;;;;;5222679;28;9912;-74
2023/04/15 14:56:18;;;;;;;;;23.50;23.50;;;;;;;;5228008;28;8797;-72
2023/04/15 14:58:51;;;;;;;;;11.00;11.00;;;;;;;;5230107;28;8885;-73
2023/04/15 15:01:23;;;;;;;;;9.50;9.50;;;;;;;;5229282;28;8833;-73
2023/04/15 15:04:12;;;;;;;;;12.00;12.00;;;;;;;;5244468;28;8938;-71
2023/04/15 15:06:43;;;;;;;;;11.80;11.80;;;;;;;;5246743;28;8821;-72
2023/04/15 15:09:14;;;;;;;;;7.50;7.50;;;;;;;;5249200;28;8795;-72
2023/04/15 15:11:45;;;;;;;;;15.20;15.20;;;;;;;;5231646;28;8879;-71
2023/04/15 15:14:16;;;;;;;;;11.50;11.50;;;;;;;;5248119;28;8791;-71
2023/04/15 15:16:47;;;;;;;;;11.00;10.00;;;;;;;;5248727;28;8806;-71
2023/04/15 15:19:18;;;;;;;;;8.75;8.75;;;;;;;;5219827;28;11567;-71
2023/04/15 15:21:49;;;;;;;;;7.33;7.33;;;;;;;;5214182;28;8835;-71
2023/04/15 15:24:20;;;;;;;;;11.75;11.75;;;;;;;;5234615;28;9230;-71
2023/04/15 15:26:51;;;;;;;;;10.67;8.67;;;;;;;;5248086;28;8823;-70
2023/04/15 15:29:40;;;;;;;;;13.60;13.60;;;;;;;;5249219;28;8832;-72
2023/04/15 15:32:11;;;;;;;;;17.25;17.25;;;;;;;;5248983;28;8791;-71